sensor_id;sensor_type;location;lat;lon;timestamp;pressure;altitude;pressure_sealevel;temperature;humidity
35519;BME280;21627;48.216;16.482;2023-01-15T00:02:23;99455.69;;;4.96;100.00
35519;BME280;21627;48.216;16.482;2023-01-15T00:04:51;99437.59;;;4.87;100.00
35519;BME280;21627;48.216;16.482;2023-01-15T00:07:18;99431.66;;;4.90;100.00
35519;BME280;21627;48.216;16.482;2023-01-15T00:09:45;99443.75;;;4.97;100.00
35519;BME280;21627;48.216;16.482;2023-01-15T00:12:12;99435.19;;;4.96;100.00
35519;BME280;21627;48.216;16.482;2023-01-15T00:14:40;99420.59;;;4.92;100.00
35519;BME280;21627;48.216;16.482;2023-01-15T00:17:07;99428.41;;;5.00;100.00
35519;BME280;21627;48.216;16.482;2023-01-15T00:19:34;99421.56;;;5.01;100.00
35519;BME280;21627;48.216;16.482;2023-01-15T00:22:01;99413.03;;;5.00;100.00
35519;BME280;21627;48.216;16.482;2023-01-15T00:24:29;99419.06;;;5.04;100.00
35519;BME280;21627;48.216;16.482;2023-01-15T00:27:14;99408.69;;;4.96;100.00
35519;BME280;21627;48.216;16.482;2023-01-15T00:30:00;99411.38;;;5.02;100.00
35519;BME280;21627;48.216;16.482;2023-01-15T00:32:27;99419.94;;;5.04;100.00
35519;BME280;21627;48.216;16.482;2023-01-15T00:34:57;99411.41;;;5.05;100.00
35519;BME280;21627;48.216;16.482;2023-01-15T00:37:25;99414.00;;;5.07;100.00
35519;BME280;21627;48.216;16.482;2023-01-15T00:39:52;99408.94;;;5.11;100.00
35519;BME280;21627;48.216;16.482;2023-01-15T00:42:19;99408.06;;;5.09;100.00
35519;BME280;21627;48.216;16.482;2023-01-15T00:44:50;99415.81;;;5.12;100.00
35519;BME280;21627;48.216;16.482;2023-01-15T00:47:17;99407.22;;;5.10;100.00
35519;BME280;21627;48.216;16.482;2023-01-15T00:49:44;99402.09;;;5.10;100.00
35519;BME280;21627;48.216;16.482;2023-01-15T00:52:11;99408.84;;;5.05;100.00
35519;BME280;21627;48.216;16.482;2023-01-15T00:54:39;99405.44;;;5.06;100.00
35519;BME280;21627;48.216;16.482;2023-01-15T00:57:06;99405.50;;;5.09;100.00
35519;BME280;21627;48.216;16.482;2023-01-15T00:59:33;99399.53;;;5.10;100.00
35519;BME280;21627;48.216;16.482;2023-01-15T01:02:00;99382.34;;;5.03;100.00
35519;BME280;21627;48.216;16.482;2023-01-15T01:04:28;99396.97;;;5.10;100.00
35519;BME280;21627;48.216;16.482;2023-01-15T01:06:55;99395.22;;;5.08;100.00
35519;BME280;21627;48.216;16.482;2023-01-15T01:09:22;99381.47;;;5.03;100.00
35519;BME280;21627;48.216;16.482;2023-01-15T01:11:49;99385.88;;;5.10;100.00
35519;BME280;21627;48.216;16.482;2023-01-15T01:14:17;99379.94;;;5.12;100.00
35519;BME280;21627;48.216;16.482;2023-01-15T01:16:44;99372.09;;;5.03;100.00
35519;BME280;21627;48.216;16.482;2023-01-15T01:19:22;99373.91;;;5.10;100.00
35519;BME280;21627;48.216;16.482;2023-01-15T01:21:50;99370.53;;;5.13;100.00
35519;BME280;21627;48.216;16.482;2023-01-15T01:24:23;99362.69;;;5.04;100.00
35519;BME280;21627;48.216;16.482;2023-01-15T01:26:50;99366.19;;;5.09;100.00
35519;BME280;21627;48.216;16.482;2023-01-15T01:29:21;99359.31;;;5.05;100.00
35519;BME280;21627;48.216;16.482;2023-01-15T01:31:49;99365.38;;;5.11;100.00
35519;BME280;21627;48.216;16.482;2023-01-15T01:34:17;99374.78;;;5.11;100.00
35519;BME280;21627;48.216;16.482;2023-01-15T01:36:44;99377.28;;;5.08;100.00
35519;BME280;21627;48.216;16.482;2023-01-15T01:39:15;99366.16;;;5.06;100.00
35519;BME280;21627;48.216;16.482;2023-01-15T01:41:43;99345.50;;;4.95;100.00
35519;BME280;21627;48.216;16.482;2023-01-15T01:47:23;99331.69;;;4.87;100.00
35519;BME280;21627;48.216;16.482;2023-01-15T01:49:58;99339.50;;;4.94;100.00
35519;BME280;21627;48.216;16.482;2023-01-15T01:52:39;99317.28;;;4.93;100.00
35519;BME280;21627;48.216;16.482;2023-01-15T01:55:08;99325.69;;;4.85;100.00
35519;BME280;21627;48.216;16.482;2023-01-15T01:57:37;99325.84;;;4.94;100.00
35519;BME280;21627;48.216;16.482;2023-01-15T02:00:07;99329.34;;;4.99;100.00
35519;BME280;21627;48.216;16.482;2023-01-15T02:02:37;99323.31;;;4.97;100.00
35519;BME280;21627;48.216;16.482;2023-01-15T02:05:07;99310.50;;;4.97;100.00
35519;BME280;21627;48.216;16.482;2023-01-15T02:07:35;99311.34;;;4.94;100.00
35519;BME280;21627;48.216;16.482;2023-01-15T02:10:02;99297.66;;;4.94;100.00
35519;BME280;21627;48.216;16.482;2023-01-15T02:12:38;99303.69;;;4.97;100.00
35519;BME280;21627;48.216;16.482;2023-01-15T02:18:02;99302.84;;;4.98;100.00
35519;BME280;21627;48.216;16.482;2023-01-15T02:30:16;99272.97;;;5.01;100.00
35519;BME280;21627;48.216;16.482;2023-01-15T02:35:28;99275.66;;;5.07;100.00
35519;BME280;21627;48.216;16.482;2023-01-15T02:38:01;99270.63;;;5.16;100.00
35519;BME280;21627;48.216;16.482;2023-01-15T02:40:32;99249.97;;;5.04;100.00
35519;BME280;21627;48.216;16.482;2023-01-15T02:43:00;99265.41;;;5.08;100.00
35519;BME280;21627;48.216;16.482;2023-01-15T02:45:32;99264.59;;;5.11;100.00
35519;BME280;21627;48.216;16.482;2023-01-15T02:48:12;99263.75;;;5.13;100.00
35519;BME280;21627;48.216;16.482;2023-01-15T02:50:47;99265.47;;;5.13;100.00
35519;BME280;21627;48.216;16.482;2023-01-15T02:53:21;99263.88;;;5.19;100.00
35519;BME280;21627;48.216;16.482;2023-01-15T02:55:54;99242.38;;;5.10;100.00
35519;BME280;21627;48.216;16.482;2023-01-15T02:58:32;99244.16;;;5.15;100.00
35519;BME280;21627;48.216;16.482;2023-01-15T03:01:15;99250.25;;;5.25;100.00
35519;BME280;21627;48.216;16.482;2023-01-15T03:04:06;99258.91;;;5.33;100.00
35519;BME280;21627;48.216;16.482;2023-01-15T03:09:17;99243.72;;;5.47;100.00
35519;BME280;21627;48.216;16.482;2023-01-15T03:12:02;99234.22;;;5.40;100.00
35519;BME280;21627;48.216;16.482;2023-01-15T03:17:42;99243.53;;;5.33;100.00
35519;BME280;21627;48.216;16.482;2023-01-15T03:20:23;99222.03;;;5.22;100.00
35519;BME280;21627;48.216;16.482;2023-01-15T03:22:57;99218.69;;;5.28;100.00
35519;BME280;21627;48.216;16.482;2023-01-15T03:25:31;99214.31;;;5.20;100.00
35519;BME280;21627;48.216;16.482;2023-01-15T03:28:02;99211.78;;;5.22;100.00
35519;BME280;21627;48.216;16.482;2023-01-15T03:30:30;99200.56;;;5.14;100.00
35519;BME280;21627;48.216;16.482;2023-01-15T03:32:59;99202.31;;;5.18;100.00
35519;BME280;21627;48.216;16.482;2023-01-15T03:36:03;99198.91;;;5.17;100.00
35519;BME280;21627;48.216;16.482;2023-01-15T03:38:35;99197.22;;;5.19;100.00
35519;BME280;21627;48.216;16.482;2023-01-15T03:41:27;99177.50;;;5.14;100.00
35519;BME280;21627;48.216;16.482;2023-01-15T03:59:21;99157.44;;;4.79;100.00
35519;BME280;21627;48.216;16.482;2023-01-15T04:01:50;99151.38;;;4.74;100.00
35519;BME280;21627;48.216;16.482;2023-01-15T04:04:19;99148.00;;;4.78;100.00
35519;BME280;21627;48.216;16.482;2023-01-15T04:06:46;99167.69;;;4.84;100.00
35519;BME280;21627;48.216;16.482;2023-01-15T04:09:16;99144.47;;;4.70;100.00
35519;BME280;21627;48.216;16.482;2023-01-15T04:11:44;99160.84;;;4.80;100.00
35519;BME280;21627;48.216;16.482;2023-01-15T04:14:13;99165.94;;;4.76;100.00
35519;BME280;21627;48.216;16.482;2023-01-15T04:16:41;99167.56;;;4.71;100.00
35519;BME280;21627;48.216;16.482;2023-01-15T04:19:08;99172.63;;;4.68;100.00
35519;BME280;21627;48.216;16.482;2023-01-15T04:21:35;99170.94;;;4.70;100.00
35519;BME280;21627;48.216;16.482;2023-01-15T04:24:02;99176.03;;;4.67;100.00
35519;BME280;21627;48.216;16.482;2023-01-15T04:26:30;99176.06;;;4.70;100.00
35519;BME280;21627;48.216;16.482;2023-01-15T04:28:57;99175.25;;;4.71;100.00
35519;BME280;21627;48.216;16.482;2023-01-15T04:31:24;99170.16;;;4.74;100.00
35519;BME280;21627;48.216;16.482;2023-01-15T04:33:51;99164.19;;;4.75;100.00
35519;BME280;21627;48.216;16.482;2023-01-15T04:36:18;99171.88;;;4.75;100.00
35519;BME280;21627;48.216;16.482;2023-01-15T04:38:46;99177.84;;;4.76;100.00
35519;BME280;21627;48.216;16.482;2023-01-15T04:41:13;99166.75;;;4.74;100.00
35519;BME280;21627;48.216;16.482;2023-01-15T04:43:59;99168.41;;;4.73;100.00
35519;BME280;21627;48.216;16.482;2023-01-15T04:46:41;99154.66;;;4.64;100.00
35519;BME280;21627;48.216;16.482;2023-01-15T04:49:15;99156.44;;;4.69;100.00
35519;BME280;21627;48.216;16.482;2023-01-15T04:51:43;99168.38;;;4.70;100.00
35519;BME280;21627;48.216;16.482;2023-01-15T04:54:15;99161.56;;;4.69;100.00
35519;BME280;21627;48.216;16.482;2023-01-15T04:56:48;99152.91;;;4.63;100.00
35519;BME280;21627;48.216;16.482;2023-01-15T04:59:20;99158.13;;;4.70;100.00
35519;BME280;21627;48.216;16.482;2023-01-15T05:01:48;99165.00;;;4.73;100.00
35519;BME280;21627;48.216;16.482;2023-01-15T05:04:31;99154.69;;;4.68;100.00
35519;BME280;21627;48.216;16.482;2023-01-15T05:07:01;99169.28;;;4.72;100.00
35519;BME280;21627;48.216;16.482;2023-01-15T05:09:29;99173.53;;;4.73;100.00
35519;BME280;21627;48.216;16.482;2023-01-15T05:11:56;99157.34;;;4.76;100.00
35519;BME280;21627;48.216;16.482;2023-01-15T05:14:23;99129.81;;;4.58;100.00
35519;BME280;21627;48.216;16.482;2023-01-15T05:16:50;99154.78;;;4.74;100.00
35519;BME280;21627;48.216;16.482;2023-01-15T05:19:18;99142.78;;;4.70;100.00
35519;BME280;21627;48.216;16.482;2023-01-15T05:21:45;99156.50;;;4.75;100.00
35519;BME280;21627;48.216;16.482;2023-01-15T05:24:15;99147.94;;;4.73;100.00
35519;BME280;21627;48.216;16.482;2023-01-15T05:26:43;99149.66;;;4.76;100.00
35519;BME280;21627;48.216;16.482;2023-01-15T05:29:11;99146.25;;;4.75;100.00
35519;BME280;21627;48.216;16.482;2023-01-15T05:31:39;99140.22;;;4.69;100.00
35519;BME280;21627;48.216;16.482;2023-01-15T05:34:09;99147.16;;;4.77;100.00
35519;BME280;21627;48.216;16.482;2023-01-15T05:36:36;99144.59;;;4.77;100.00
35519;BME280;21627;48.216;16.482;2023-01-15T05:39:04;99133.50;;;4.77;100.00
35519;BME280;21627;48.216;16.482;2023-01-15T05:41:31;99130.13;;;4.83;100.00
35519;BME280;21627;48.216;16.482;2023-01-15T05:44:26;99132.69;;;4.83;100.00
35519;BME280;21627;48.216;16.482;2023-01-15T05:46:58;99119.81;;;4.76;100.00
35519;BME280;21627;48.216;16.482;2023-01-15T05:49:29;99138.69;;;4.83;100.00
35519;BME280;21627;48.216;16.482;2023-01-15T05:51:59;99139.50;;;4.81;100.00
35519;BME280;21627;48.216;16.482;2023-01-15T05:54:30;99132.50;;;4.67;100.00
35519;BME280;21627;48.216;16.482;2023-01-15T05:56:59;99142.88;;;4.76;100.00
35519;BME280;21627;48.216;16.482;2023-01-15T05:59:29;99142.81;;;4.73;100.00
35519;BME280;21627;48.216;16.482;2023-01-15T06:01:57;99148.84;;;4.78;100.00
35519;BME280;21627;48.216;16.482;2023-01-15T06:04:24;99153.84;;;4.68;100.00
35519;BME280;21627;48.216;16.482;2023-01-15T06:06:54;99157.19;;;4.62;100.00
35519;BME280;21627;48.216;16.482;2023-01-15T06:09:23;99158.13;;;4.70;100.00
35519;BME280;21627;48.216;16.482;2023-01-15T06:11:50;99160.69;;;4.69;100.00
35519;BME280;21627;48.216;16.482;2023-01-15T06:14:19;99158.09;;;4.67;100.00
35519;BME280;21627;48.216;16.482;2023-01-15T06:16:46;99130.63;;;4.55;100.00
35519;BME280;21627;48.216;16.482;2023-01-15T06:19:14;99145.31;;;4.67;100.00
35519;BME280;21627;48.216;16.482;2023-01-15T06:21:41;99149.44;;;4.58;100.00
35519;BME280;21627;48.216;16.482;2023-01-15T06:24:09;99172.50;;;4.59;100.00
35519;BME280;21627;48.216;16.482;2023-01-15T06:26:39;99197.34;;;4.65;100.00
35519;BME280;21627;48.216;16.482;2023-01-15T06:29:06;99190.47;;;4.62;100.00
35519;BME280;21627;48.216;16.482;2023-01-15T06:31:33;99186.28;;;4.67;100.00
35519;BME280;21627;48.216;16.482;2023-01-15T06:34:00;99177.66;;;4.62;100.00
35519;BME280;21627;48.216;16.482;2023-01-15T06:36:28;99179.44;;;4.68;100.00
35519;BME280;21627;48.216;16.482;2023-01-15T06:38:55;99184.59;;;4.71;100.00
35519;BME280;21627;48.216;16.482;2023-01-15T06:41:24;99176.78;;;4.60;100.00
35519;BME280;21627;48.216;16.482;2023-01-15T06:44:14;99181.75;;;4.51;100.00
35519;BME280;21627;48.216;16.482;2023-01-15T06:47:09;99176.75;;;4.57;100.00
35519;BME280;21627;48.216;16.482;2023-01-15T06:49:55;99179.25;;;4.54;100.00
35519;BME280;21627;48.216;16.482;2023-01-15T06:52:26;99174.91;;;4.50;100.00
35519;BME280;21627;48.216;16.482;2023-01-15T06:54:54;99159.47;;;4.44;100.00
35519;BME280;21627;48.216;16.482;2023-01-15T06:57:22;99166.53;;;4.60;100.00
35519;BME280;21627;48.216;16.482;2023-01-15T06:59:49;99144.34;;;4.61;100.00
35519;BME280;21627;48.216;16.482;2023-01-15T07:02:17;99141.81;;;4.62;100.00
35519;BME280;21627;48.216;16.482;2023-01-15T07:04:46;99142.59;;;4.58;100.00
35519;BME280;21627;48.216;16.482;2023-01-15T07:07:15;99145.16;;;4.57;100.00
35519;BME280;21627;48.216;16.482;2023-01-15T07:09:43;99151.13;;;4.57;100.00
35519;BME280;21627;48.216;16.482;2023-01-15T07:12:11;99154.59;;;4.59;100.00
35519;BME280;21627;48.216;16.482;2023-01-15T07:14:39;99143.50;;;4.60;100.00
35519;BME280;21627;48.216;16.482;2023-01-15T07:17:06;99142.59;;;4.58;100.00
35519;BME280;21627;48.216;16.482;2023-01-15T07:19:33;99133.25;;;4.59;100.00
35519;BME280;21627;48.216;16.482;2023-01-15T07:22:01;99117.75;;;4.49;100.00
35519;BME280;21627;48.216;16.482;2023-01-15T07:24:28;99129.72;;;4.52;100.00
35519;BME280;21627;48.216;16.482;2023-01-15T07:26:55;99138.13;;;4.42;100.00
35519;BME280;21627;48.216;16.482;2023-01-15T07:29:22;99111.56;;;4.35;100.00
35519;BME280;21627;48.216;16.482;2023-01-15T07:31:50;99121.78;;;4.33;100.00
35519;BME280;21627;48.216;16.482;2023-01-15T07:34:18;99121.69;;;4.26;100.00
35519;BME280;21627;48.216;16.482;2023-01-15T07:36:48;99123.94;;;4.07;100.00
35519;BME280;21627;48.216;16.482;2023-01-15T07:39:15;99118.81;;;4.07;100.00
35519;BME280;21627;48.216;16.482;2023-01-15T07:41:43;99106.09;;;4.12;100.00
35519;BME280;21627;48.216;16.482;2023-01-15T07:44:28;99117.88;;;4.02;100.00
35519;BME280;21627;48.216;16.482;2023-01-15T07:47:23;99104.13;;;3.94;100.00
35519;BME280;21627;48.216;16.482;2023-01-15T07:50:14;99109.06;;;3.83;100.00
35519;BME280;21627;48.216;16.482;2023-01-15T07:52:42;99082.59;;;3.81;100.00
35519;BME280;21627;48.216;16.482;2023-01-15T07:55:10;99097.09;;;3.81;100.00
35519;BME280;21627;48.216;16.482;2023-01-15T07:57:40;99107.28;;;3.79;100.00
35519;BME280;21627;48.216;16.482;2023-01-15T08:00:12;99105.47;;;3.72;100.00
35519;BME280;21627;48.216;16.482;2023-01-15T08:02:40;99116.56;;;3.74;100.00
35519;BME280;21627;48.216;16.482;2023-01-15T08:05:08;99102.03;;;3.72;100.00
35519;BME280;21627;48.216;16.482;2023-01-15T08:07:39;99084.03;;;3.64;100.00
35519;BME280;21627;48.216;16.482;2023-01-15T08:10:09;99098.63;;;3.73;100.00
35519;BME280;21627;48.216;16.482;2023-01-15T08:12:36;99102.94;;;3.75;100.00
35519;BME280;21627;48.216;16.482;2023-01-15T08:15:24;99087.56;;;3.72;100.00
35519;BME280;21627;48.216;16.482;2023-01-15T08:17:52;99083.38;;;3.76;100.00
35519;BME280;21627;48.216;16.482;2023-01-15T08:20:22;99084.16;;;3.72;100.00
35519;BME280;21627;48.216;16.482;2023-01-15T08:22:51;99087.66;;;3.77;100.00
35519;BME280;21627;48.216;16.482;2023-01-15T08:25:23;99097.88;;;3.77;100.00
35519;BME280;21627;48.216;16.482;2023-01-15T08:27:51;99073.03;;;3.68;100.00
35519;BME280;21627;48.216;16.482;2023-01-15T08:30:22;99078.31;;;3.80;100.00
35519;BME280;21627;48.216;16.482;2023-01-15T08:32:50;99078.50;;;3.91;100.00
35519;BME280;21627;48.216;16.482;2023-01-15T08:35:18;99063.03;;;3.85;100.00
35519;BME280;21627;48.216;16.482;2023-01-15T08:37:45;99058.78;;;3.84;100.00
35519;BME280;21627;48.216;16.482;2023-01-15T08:40:12;99059.63;;;3.84;100.00
35519;BME280;21627;48.216;16.482;2023-01-15T08:42:39;99069.09;;;3.90;100.00
35519;BME280;21627;48.216;16.482;2023-01-15T08:45:08;99047.72;;;3.85;100.00
35519;BME280;21627;48.216;16.482;2023-01-15T08:47:36;99052.00;;;3.86;100.00
35519;BME280;21627;48.216;16.482;2023-01-15T08:50:05;99066.63;;;3.95;100.00
35519;BME280;21627;48.216;16.482;2023-01-15T08:52:33;99060.59;;;3.91;100.00
35519;BME280;21627;48.216;16.482;2023-01-15T08:55:00;99069.22;;;3.96;100.00
35519;BME280;21627;48.216;16.482;2023-01-15T08:57:28;99071.88;;;4.04;100.00
35519;BME280;21627;48.216;16.482;2023-01-15T08:59:55;99064.22;;;4.05;100.00
35519;BME280;21627;48.216;16.482;2023-01-15T09:02:22;99077.13;;;4.13;100.00
35519;BME280;21627;48.216;16.482;2023-01-15T09:04:49;99094.97;;;4.08;100.00
35519;BME280;21627;48.216;16.482;2023-01-15T09:07:18;99092.22;;;3.98;100.00
35519;BME280;21627;48.216;16.482;2023-01-15T09:09:46;99102.56;;;4.04;100.00
35519;BME280;21627;48.216;16.482;2023-01-15T09:12:13;99098.44;;;4.12;100.00
35519;BME280;21627;48.216;16.482;2023-01-15T09:14:40;99111.13;;;4.06;100.00
35519;BME280;21627;48.216;16.482;2023-01-15T09:17:29;99104.28;;;4.05;100.00
35519;BME280;21627;48.216;16.482;2023-01-15T09:19:57;99072.59;;;3.95;100.00
35519;BME280;21627;48.216;16.482;2023-01-15T09:22:27;99096.72;;;4.12;100.00
35519;BME280;21627;48.216;16.482;2023-01-15T09:24:57;99081.28;;;4.06;100.00
35519;BME280;21627;48.216;16.482;2023-01-15T09:27:25;99077.06;;;4.08;100.00
35519;BME280;21627;48.216;16.482;2023-01-15T09:29:53;99095.13;;;4.21;100.00
35519;BME280;21627;48.216;16.482;2023-01-15T09:32:21;99094.22;;;4.16;100.00
35519;BME280;21627;48.216;16.482;2023-01-15T09:34:49;99093.38;;;4.17;100.00
35519;BME280;21627;48.216;16.482;2023-01-15T09:37:16;99092.53;;;4.16;100.00
35519;BME280;21627;48.216;16.482;2023-01-15T09:39:43;99084.78;;;4.13;100.00
35519;BME280;21627;48.216;16.482;2023-01-15T09:45:29;99096.03;;;4.21;100.00
35519;BME280;21627;48.216;16.482;2023-01-15T09:48:37;99101.97;;;4.20;100.00
35519;BME280;21627;48.216;16.482;2023-01-15T09:57:31;99082.31;;;4.18;100.00
35519;BME280;21627;48.216;16.482;2023-01-15T09:59:59;99097.75;;;4.25;100.00
35519;BME280;21627;48.216;16.482;2023-01-15T10:02:44;99086.69;;;4.25;100.00
35519;BME280;21627;48.216;16.482;2023-01-15T10:05:29;99069.63;;;4.24;100.00
35519;BME280;21627;48.216;16.482;2023-01-15T10:08:18;99057.72;;;4.27;100.00
35519;BME280;21627;48.216;16.482;2023-01-15T10:10:55;99074.09;;;4.40;100.00
35519;BME280;21627;48.216;16.482;2023-01-15T10:13:59;99052.56;;;4.24;100.00
35519;BME280;21627;48.216;16.482;2023-01-15T10:16:30;99074.16;;;4.45;100.00
35519;BME280;21627;48.216;16.482;2023-01-15T10:19:01;99070.75;;;4.46;100.00
35519;BME280;21627;48.216;16.482;2023-01-15T10:21:45;99068.25;;;4.49;100.00
35519;BME280;21627;48.216;16.482;2023-01-15T10:24:37;99084.38;;;4.43;100.00
35519;BME280;21627;48.216;16.482;2023-01-15T10:27:22;99084.25;;;4.36;100.00
35519;BME280;21627;48.216;16.482;2023-01-15T10:30:42;99066.41;;;4.40;100.00
35519;BME280;21627;48.216;16.482;2023-01-15T10:33:48;99062.13;;;4.38;100.00
35519;BME280;21627;48.216;16.482;2023-01-15T10:36:31;99069.88;;;4.42;100.00
35519;BME280;21627;48.216;16.482;2023-01-15T10:45:19;99064.84;;;4.50;100.00
35519;BME280;21627;48.216;16.482;2023-01-15T10:50:52;99055.53;;;4.55;100.00
35519;BME280;21627;48.216;16.482;2023-01-15T11:01:42;99017.16;;;4.57;100.00
35519;BME280;21627;48.216;16.482;2023-01-15T11:04:11;99000.81;;;4.48;100.00
35519;BME280;21627;48.216;16.482;2023-01-15T11:06:42;98996.53;;;4.46;100.00
35519;BME280;21627;48.216;16.482;2023-01-15T11:09:24;99001.78;;;4.57;100.00
35519;BME280;21627;48.216;16.482;2023-01-15T11:14:45;98980.44;;;4.56;100.00
35519;BME280;21627;48.216;16.482;2023-01-15T11:17:43;98989.09;;;4.67;100.00
35519;BME280;21627;48.216;16.482;2023-01-15T11:20:44;98984.81;;;4.65;100.00
35519;BME280;21627;48.216;16.482;2023-01-15T11:23:18;98971.16;;;4.64;100.00
35519;BME280;21627;48.216;16.482;2023-01-15T11:25:58;98959.13;;;4.57;100.00
35519;BME280;21627;48.216;16.482;2023-01-15T11:28:36;98965.91;;;4.52;100.00
35519;BME280;21627;48.216;16.482;2023-01-15T11:31:07;98962.47;;;4.53;100.00
35519;BME280;21627;48.216;16.482;2023-01-15T11:33:36;98963.31;;;4.50;100.00
35519;BME280;21627;48.216;16.482;2023-01-15T11:36:22;98963.41;;;4.57;100.00
35519;BME280;21627;48.216;16.482;2023-01-15T11:38:50;98971.06;;;4.58;100.00
35519;BME280;21627;48.216;16.482;2023-01-15T11:41:33;98957.31;;;4.48;100.00
35519;BME280;21627;48.216;16.482;2023-01-15T11:44:21;98954.03;;;4.59;100.00
35519;BME280;21627;48.216;16.482;2023-01-15T11:47:16;98978.72;;;4.55;100.00
35519;BME280;21627;48.216;16.482;2023-01-15T11:50:16;98970.97;;;4.50;100.00
35519;BME280;21627;48.216;16.482;2023-01-15T11:53:02;98982.09;;;4.49;100.00
35519;BME280;21627;48.216;16.482;2023-01-15T11:55:30;98978.66;;;4.49;100.00
35519;BME280;21627;48.216;16.482;2023-01-15T11:57:57;98956.38;;;4.43;100.00
35519;BME280;21627;48.216;16.482;2023-01-15T12:00:33;98968.47;;;4.52;100.00
35519;BME280;21627;48.216;16.482;2023-01-15T12:03:12;98956.50;;;4.52;100.00
35519;BME280;21627;48.216;16.482;2023-01-15T12:05:47;98958.19;;;4.49;100.00
35519;BME280;21627;48.216;16.482;2023-01-15T12:08:36;98951.41;;;4.54;100.00
35519;BME280;21627;48.216;16.482;2023-01-15T12:14:40;98942.91;;;4.58;100.00
35519;BME280;21627;48.216;16.482;2023-01-15T12:26:07;98924.16;;;4.59;100.00
35519;BME280;21627;48.216;16.482;2023-01-15T12:29:11;98916.44;;;4.54;100.00
35519;BME280;21627;48.216;16.482;2023-01-15T12:31:56;98917.19;;;4.47;100.00
35519;BME280;21627;48.216;16.482;2023-01-15T12:34:34;98920.72;;;4.57;100.00
35519;BME280;21627;48.216;16.482;2023-01-15T12:37:43;98912.94;;;4.48;100.00
35519;BME280;21627;48.216;16.482;2023-01-15T12:43:26;98922.38;;;4.53;100.00
35519;BME280;21627;48.216;16.482;2023-01-15T12:46:24;98925.78;;;4.52;100.00
35519;BME280;21627;48.216;16.482;2023-01-15T12:51:59;98896.06;;;4.64;100.00
35519;BME280;21627;48.216;16.482;2023-01-15T12:55:00;98893.38;;;4.56;100.00
35519;BME280;21627;48.216;16.482;2023-01-15T12:57:43;98905.31;;;4.52;100.00
35519;BME280;21627;48.216;16.482;2023-01-15T13:00:34;98912.25;;;4.63;100.00
35519;BME280;21627;48.216;16.482;2023-01-15T13:06:02;98908.81;;;4.61;100.00
35519;BME280;21627;48.216;16.482;2023-01-15T13:11:05;98907.94;;;4.60;100.00
35519;BME280;21627;48.216;16.482;2023-01-15T13:13:38;98915.72;;;4.66;100.00
35519;BME280;21627;48.216;16.482;2023-01-15T13:16:23;98894.28;;;4.60;100.00
35519;BME280;21627;48.216;16.482;2023-01-15T13:22:02;98889.19;;;4.63;100.00
35519;BME280;21627;48.216;16.482;2023-01-15T13:27:53;98884.94;;;4.62;100.00
35519;BME280;21627;48.216;16.482;2023-01-15T13:36:31;98899.41;;;4.57;100.00
35519;BME280;21627;48.216;16.482;2023-01-15T13:39:02;98895.09;;;4.54;100.00
35519;BME280;21627;48.216;16.482;2023-01-15T13:41:33;98903.69;;;4.59;100.00
35519;BME280;21627;48.216;16.482;2023-01-15T13:44:27;98874.63;;;4.54;100.00
35519;BME280;21627;48.216;16.482;2023-01-15T13:47:09;98882.41;;;4.65;100.00
35519;BME280;21627;48.216;16.482;2023-01-15T13:49:44;98875.53;;;4.59;100.00
35519;BME280;21627;48.216;16.482;2023-01-15T13:52:33;98881.50;;;4.60;100.00
35519;BME280;21627;48.216;16.482;2023-01-15T13:57:42;98879.88;;;4.66;100.00
35519;BME280;21627;48.216;16.482;2023-01-15T14:00:43;98900.34;;;4.66;100.00
35519;BME280;21627;48.216;16.482;2023-01-15T14:03:30;98887.50;;;4.63;100.00
35519;BME280;21627;48.216;16.482;2023-01-15T14:06:06;98890.84;;;4.58;100.00
35519;BME280;21627;48.216;16.482;2023-01-15T14:08:42;98890.88;;;4.59;100.00
35519;BME280;21627;48.216;16.482;2023-01-15T14:11:36;98922.56;;;4.69;100.00
35519;BME280;21627;48.216;16.482;2023-01-15T14:24:29;98943.88;;;4.68;100.00
35519;BME280;21627;48.216;16.482;2023-01-15T14:29:53;98931.94;;;4.70;100.00
35519;BME280;21627;48.216;16.482;2023-01-15T14:35:45;98921.66;;;4.65;100.00
35519;BME280;21627;48.216;16.482;2023-01-15T14:38:21;98933.59;;;4.65;100.00
35519;BME280;21627;48.216;16.482;2023-01-15T14:41:01;98934.47;;;4.65;100.00
35519;BME280;21627;48.216;16.482;2023-01-15T14:43:33;98944.69;;;4.64;100.00
35519;BME280;21627;48.216;16.482;2023-01-15T14:46:25;98945.56;;;4.64;100.00
35519;BME280;21627;48.216;16.482;2023-01-15T14:48:58;98933.56;;;4.60;100.00
35519;BME280;21627;48.216;16.482;2023-01-15T14:51:31;98944.72;;;4.68;100.00
35519;BME280;21627;48.216;16.482;2023-01-15T14:54:08;98944.69;;;4.65;100.00
35519;BME280;21627;48.216;16.482;2023-01-15T14:56:53;98972.91;;;4.67;100.00
35519;BME280;21627;48.216;16.482;2023-01-15T14:59:43;98959.19;;;4.62;100.00
35519;BME280;21627;48.216;16.482;2023-01-15T15:02:23;98986.56;;;4.69;100.00
35519;BME280;21627;48.216;16.482;2023-01-15T15:04:59;98991.69;;;4.69;100.00
35519;BME280;21627;48.216;16.482;2023-01-15T15:07:39;98973.72;;;4.64;100.00
35519;BME280;21627;48.216;16.482;2023-01-15T15:10:24;98997.66;;;4.68;100.00
35519;BME280;21627;48.216;16.482;2023-01-15T15:16:11;98988.25;;;4.67;100.00
35519;BME280;21627;48.216;16.482;2023-01-15T15:19:25;98991.66;;;4.67;100.00
35519;BME280;21627;48.216;16.482;2023-01-15T15:21:56;99001.06;;;4.68;100.00
35519;BME280;21627;48.216;16.482;2023-01-15T15:24:31;99006.25;;;4.73;100.00
35519;BME280;21627;48.216;16.482;2023-01-15T15:27:20;99015.66;;;4.74;100.00
35519;BME280;21627;48.216;16.482;2023-01-15T15:29:49;99033.59;;;4.75;100.00
35519;BME280;21627;48.216;16.482;2023-01-15T15:32:22;99040.38;;;4.73;100.00
35519;BME280;21627;48.216;16.482;2023-01-15T15:34:52;99062.66;;;4.81;100.00